sensor_id;sensor_type;location;lat;lon;timestamp;temperature;humidity
67192;HTU21D;54120;53.504;49.426;2023-11-21T00:01:41;-0.58;95.87
67192;HTU21D;54120;53.504;49.426;2023-11-21T00:04:07;-0.60;95.92
67192;HTU21D;54120;53.504;49.426;2023-11-21T00:06:33;-0.61;96.93
67192;HTU21D;54120;53.504;49.426;2023-11-21T00:09:00;-0.59;96.25
67192;HTU21D;54120;53.504;49.426;2023-11-21T00:11:26;-0.59;96.20
67192;HTU21D;54120;53.504;49.426;2023-11-21T00:13:52;-0.61;97.20
67192;HTU21D;54120;53.504;49.426;2023-11-21T00:16:18;-0.66;97.96
67192;HTU21D;54120;53.504;49.426;2023-11-21T00:18:44;-0.67;98.68
67192;HTU21D;54120;53.504;49.426;2023-11-21T00:21:12;-0.68;99.31
67192;HTU21D;54120;53.504;49.426;2023-11-21T00:23:38;-0.70;99.94
67192;HTU21D;54120;53.504;49.426;2023-11-21T00:26:04;-0.72;100.74
67192;HTU21D;54120;53.504;49.426;2023-11-21T00:28:30;-0.74;101.63
67192;HTU21D;54120;53.504;49.426;2023-11-21T00:30:56;-0.76;102.06
67192;HTU21D;54120;53.504;49.426;2023-11-21T00:33:22;-0.79;102.42
67192;HTU21D;54120;53.504;49.426;2023-11-21T00:35:49;-0.80;102.80
67192;HTU21D;54120;53.504;49.426;2023-11-21T00:38:15;-0.82;103.07
67192;HTU21D;54120;53.504;49.426;2023-11-21T00:40:41;-0.81;103.31
67192;HTU21D;54120;53.504;49.426;2023-11-21T00:43:07;-0.79;103.57
67192;HTU21D;54120;53.504;49.426;2023-11-21T00:45:33;-0.82;103.75
67192;HTU21D;54120;53.504;49.426;2023-11-21T00:47:59;-0.81;103.68
67192;HTU21D;54120;53.504;49.426;2023-11-21T00:50:25;-0.80;103.69
67192;HTU21D;54120;53.504;49.426;2023-11-21T00:52:52;-0.79;103.77
67192;HTU21D;54120;53.504;49.426;2023-11-21T00:55:18;-0.79;103.87
67192;HTU21D;54120;53.504;49.426;2023-11-21T00:57:44;-0.79;104.01
67192;HTU21D;54120;53.504;49.426;2023-11-21T01:00:10;-0.76;103.98
67192;HTU21D;54120;53.504;49.426;2023-11-21T01:02:39;-0.76;103.93
67192;HTU21D;54120;53.504;49.426;2023-11-21T01:05:06;-0.75;103.85
67192;HTU21D;54120;53.504;49.426;2023-11-21T01:07:33;-0.75;103.79
67192;HTU21D;54120;53.504;49.426;2023-11-21T01:09:59;-0.75;103.63
67192;HTU21D;54120;53.504;49.426;2023-11-21T01:12:25;-0.72;103.54
67192;HTU21D;54120;53.504;49.426;2023-11-21T01:14:51;-0.72;103.32
67192;HTU21D;54120;53.504;49.426;2023-11-21T01:17:17;-0.72;102.80
67192;HTU21D;54120;53.504;49.426;2023-11-21T01:19:44;-0.69;102.45
67192;HTU21D;54120;53.504;49.426;2023-11-21T01:22:10;-0.68;102.27
67192;HTU21D;54120;53.504;49.426;2023-11-21T01:24:38;-0.67;101.64
67192;HTU21D;54120;53.504;49.426;2023-11-21T01:27:04;-0.67;101.68
67192;HTU21D;54120;53.504;49.426;2023-11-21T01:29:30;-0.62;101.39
67192;HTU21D;54120;53.504;49.426;2023-11-21T01:31:56;-0.62;101.09
67192;HTU21D;54120;53.504;49.426;2023-11-21T01:34:23;-0.60;100.83
67192;HTU21D;54120;53.504;49.426;2023-11-21T01:36:49;-0.59;100.51
67192;HTU21D;54120;53.504;49.426;2023-11-21T01:39:15;-0.58;100.28
67192;HTU21D;54120;53.504;49.426;2023-11-21T01:41:42;-0.56;99.67
67192;HTU21D;54120;53.504;49.426;2023-11-21T01:44:09;-0.52;99.60
67192;HTU21D;54120;53.504;49.426;2023-11-21T01:46:36;-0.51;99.25
67192;HTU21D;54120;53.504;49.426;2023-11-21T01:49:04;-0.49;99.11
67192;HTU21D;54120;53.504;49.426;2023-11-21T01:51:31;-0.44;98.67
67192;HTU21D;54120;53.504;49.426;2023-11-21T01:53:58;-0.41;98.58
67192;HTU21D;54120;53.504;49.426;2023-11-21T01:56:25;-0.43;98.63
67192;HTU21D;54120;53.504;49.426;2023-11-21T01:58:52;-0.41;98.45
67192;HTU21D;54120;53.504;49.426;2023-11-21T02:01:18;-0.38;98.37
67192;HTU21D;54120;53.504;49.426;2023-11-21T02:03:45;-0.37;98.18
67192;HTU21D;54120;53.504;49.426;2023-11-21T02:06:11;-0.38;97.99
67192;HTU21D;54120;53.504;49.426;2023-11-21T02:08:38;-0.35;97.96
67192;HTU21D;54120;53.504;49.426;2023-11-21T02:11:05;-0.37;98.03
67192;HTU21D;54120;53.504;49.426;2023-11-21T02:13:32;-0.35;98.03
67192;HTU21D;54120;53.504;49.426;2023-11-21T02:15:59;-0.34;97.94
67192;HTU21D;54120;53.504;49.426;2023-11-21T02:18:26;-0.32;97.86
67192;HTU21D;54120;53.504;49.426;2023-11-21T02:20:55;-0.30;97.75
67192;HTU21D;54120;53.504;49.426;2023-11-21T02:23:21;-0.29;97.74
67192;HTU21D;54120;53.504;49.426;2023-11-21T02:25:49;-0.28;97.66
67192;HTU21D;54120;53.504;49.426;2023-11-21T02:28:15;-0.26;97.58
67192;HTU21D;54120;53.504;49.426;2023-11-21T02:30:52;-0.24;97.54
67192;HTU21D;54120;53.504;49.426;2023-11-21T02:33:22;-0.23;97.41
67192;HTU21D;54120;53.504;49.426;2023-11-21T02:35:49;-0.24;97.45
67192;HTU21D;54120;53.504;49.426;2023-11-21T02:38:15;-0.21;97.32
67192;HTU21D;54120;53.504;49.426;2023-11-21T02:40:42;-0.21;97.26
67192;HTU21D;54120;53.504;49.426;2023-11-21T02:43:09;-0.19;97.25
67192;HTU21D;54120;53.504;49.426;2023-11-21T02:45:36;-0.17;97.14
67192;HTU21D;54120;53.504;49.426;2023-11-21T02:48:02;-0.14;97.11
67192;HTU21D;54120;53.504;49.426;2023-11-21T02:50:29;-0.15;97.03
67192;HTU21D;54120;53.504;49.426;2023-11-21T02:52:56;-0.15;97.11
67192;HTU21D;54120;53.504;49.426;2023-11-21T02:55:26;-0.13;97.11
67192;HTU21D;54120;53.504;49.426;2023-11-21T02:57:54;-0.11;97.03
67192;HTU21D;54120;53.504;49.426;2023-11-21T03:00:22;-0.10;97.01
67192;HTU21D;54120;53.504;49.426;2023-11-21T03:02:50;-0.09;96.99
67192;HTU21D;54120;53.504;49.426;2023-11-21T03:05:16;-0.08;96.97
67192;HTU21D;54120;53.504;49.426;2023-11-21T03:07:42;-0.07;96.89
67192;HTU21D;54120;53.504;49.426;2023-11-21T03:10:09;-0.07;96.87
67192;HTU21D;54120;53.504;49.426;2023-11-21T03:12:40;-0.08;96.95
67192;HTU21D;54120;53.504;49.426;2023-11-21T03:15:07;-0.07;96.94
67192;HTU21D;54120;53.504;49.426;2023-11-21T03:17:34;-0.06;96.90
67192;HTU21D;54120;53.504;49.426;2023-11-21T03:20:00;-0.08;96.90
67192;HTU21D;54120;53.504;49.426;2023-11-21T03:22:26;-0.06;96.99
67192;HTU21D;54120;53.504;49.426;2023-11-21T03:24:52;-0.05;96.91
67192;HTU21D;54120;53.504;49.426;2023-11-21T03:27:19;-0.03;97.03
67192;HTU21D;54120;53.504;49.426;2023-11-21T03:29:46;-0.02;96.93
67192;HTU21D;54120;53.504;49.426;2023-11-21T03:32:13;-0.00;96.87
67192;HTU21D;54120;53.504;49.426;2023-11-21T03:34:56;0.02;96.86
67192;HTU21D;54120;53.504;49.426;2023-11-21T03:37:23;0.03;96.84
67192;HTU21D;54120;53.504;49.426;2023-11-21T03:39:51;0.01;96.91
67192;HTU21D;54120;53.504;49.426;2023-11-21T03:42:17;0.04;96.91
67192;HTU21D;54120;53.504;49.426;2023-11-21T03:44:43;0.03;96.83
67192;HTU21D;54120;53.504;49.426;2023-11-21T03:47:10;0.06;96.84
67192;HTU21D;54120;53.504;49.426;2023-11-21T03:49:37;0.06;96.84
67192;HTU21D;54120;53.504;49.426;2023-11-21T03:52:03;0.04;97.12
67192;HTU21D;54120;53.504;49.426;2023-11-21T03:54:29;0.05;97.16
67192;HTU21D;54120;53.504;49.426;2023-11-21T03:56:56;0.06;97.14
67192;HTU21D;54120;53.504;49.426;2023-11-21T03:59:22;0.06;97.15
67192;HTU21D;54120;53.504;49.426;2023-11-21T04:01:50;0.07;97.07
67192;HTU21D;54120;53.504;49.426;2023-11-21T04:04:16;0.07;97.18
67192;HTU21D;54120;53.504;49.426;2023-11-21T04:06:43;0.08;97.28
67192;HTU21D;54120;53.504;49.426;2023-11-21T04:09:09;0.09;97.21
67192;HTU21D;54120;53.504;49.426;2023-11-21T04:11:35;0.09;97.19
67192;HTU21D;54120;53.504;49.426;2023-11-21T04:14:01;0.10;97.10
67192;HTU21D;54120;53.504;49.426;2023-11-21T04:16:28;0.14;97.12
67192;HTU21D;54120;53.504;49.426;2023-11-21T04:18:55;0.16;97.07
67192;HTU21D;54120;53.504;49.426;2023-11-21T04:21:21;0.15;97.17
67192;HTU21D;54120;53.504;49.426;2023-11-21T04:23:47;0.16;97.21
67192;HTU21D;54120;53.504;49.426;2023-11-21T04:26:14;0.16;97.25
67192;HTU21D;54120;53.504;49.426;2023-11-21T04:28:40;0.16;97.39
67192;HTU21D;54120;53.504;49.426;2023-11-21T04:31:06;0.16;97.42
67192;HTU21D;54120;53.504;49.426;2023-11-21T04:33:33;0.16;97.29
67192;HTU21D;54120;53.504;49.426;2023-11-21T04:35:59;0.15;97.39
67192;HTU21D;54120;53.504;49.426;2023-11-21T04:38:25;0.14;97.38
67192;HTU21D;54120;53.504;49.426;2023-11-21T04:40:51;0.15;97.57
67192;HTU21D;54120;53.504;49.426;2023-11-21T04:43:17;0.16;97.68
67192;HTU21D;54120;53.504;49.426;2023-11-21T04:45:44;0.15;97.92
67192;HTU21D;54120;53.504;49.426;2023-11-21T04:48:10;0.13;98.16
67192;HTU21D;54120;53.504;49.426;2023-11-21T04:50:36;0.13;98.40
67192;HTU21D;54120;53.504;49.426;2023-11-21T04:53:02;0.14;98.36
67192;HTU21D;54120;53.504;49.426;2023-11-21T04:55:28;0.15;98.47
67192;HTU21D;54120;53.504;49.426;2023-11-21T04:57:55;0.15;98.55
67192;HTU21D;54120;53.504;49.426;2023-11-21T05:00:21;0.15;98.63
67192;HTU21D;54120;53.504;49.426;2023-11-21T05:02:47;0.16;98.52
67192;HTU21D;54120;53.504;49.426;2023-11-21T05:05:14;0.19;98.51
67192;HTU21D;54120;53.504;49.426;2023-11-21T05:07:40;0.19;98.51
67192;HTU21D;54120;53.504;49.426;2023-11-21T05:10:07;0.17;98.36
67192;HTU21D;54120;53.504;49.426;2023-11-21T05:12:36;0.17;98.37
67192;HTU21D;54120;53.504;49.426;2023-11-21T05:15:06;0.15;98.54
67192;HTU21D;54120;53.504;49.426;2023-11-21T05:17:39;0.13;98.64
67192;HTU21D;54120;53.504;49.426;2023-11-21T05:20:09;0.15;98.87
67192;HTU21D;54120;53.504;49.426;2023-11-21T05:22:36;0.14;98.85
67192;HTU21D;54120;53.504;49.426;2023-11-21T05:25:03;0.14;99.00
67192;HTU21D;54120;53.504;49.426;2023-11-21T05:27:30;0.14;99.19
67192;HTU21D;54120;53.504;49.426;2023-11-21T05:29:57;0.15;99.28
67192;HTU21D;54120;53.504;49.426;2023-11-21T05:32:26;0.17;99.20
67192;HTU21D;54120;53.504;49.426;2023-11-21T05:34:52;0.20;99.29
67192;HTU21D;54120;53.504;49.426;2023-11-21T05:37:18;0.21;99.21
67192;HTU21D;54120;53.504;49.426;2023-11-21T05:39:45;0.24;99.28
67192;HTU21D;54120;53.504;49.426;2023-11-21T05:42:11;0.23;99.27
67192;HTU21D;54120;53.504;49.426;2023-11-21T05:44:41;0.25;99.35
67192;HTU21D;54120;53.504;49.426;2023-11-21T05:47:07;0.27;99.32
67192;HTU21D;54120;53.504;49.426;2023-11-21T05:49:34;0.25;99.39
67192;HTU21D;54120;53.504;49.426;2023-11-21T05:52:01;0.27;99.47
67192;HTU21D;54120;53.504;49.426;2023-11-21T05:54:27;0.29;99.49
67192;HTU21D;54120;53.504;49.426;2023-11-21T05:56:53;0.33;99.55
67192;HTU21D;54120;53.504;49.426;2023-11-21T05:59:19;0.34;99.64
67192;HTU21D;54120;53.504;49.426;2023-11-21T06:01:46;0.37;99.53
67192;HTU21D;54120;53.504;49.426;2023-11-21T06:04:13;0.37;99.55
67192;HTU21D;54120;53.504;49.426;2023-11-21T06:06:39;0.42;99.65
67192;HTU21D;54120;53.504;49.426;2023-11-21T06:09:05;0.50;99.45
67192;HTU21D;54120;53.504;49.426;2023-11-21T06:11:35;0.63;98.95
67192;HTU21D;54120;53.504;49.426;2023-11-21T06:14:01;0.71;98.59
67192;HTU21D;54120;53.504;49.426;2023-11-21T06:16:28;0.75;98.36
67192;HTU21D;54120;53.504;49.426;2023-11-21T06:18:55;0.81;98.11
67192;HTU21D;54120;53.504;49.426;2023-11-21T06:21:21;0.79;97.94
67192;HTU21D;54120;53.504;49.426;2023-11-21T06:23:47;0.72;98.02
67192;HTU21D;54120;53.504;49.426;2023-11-21T06:26:13;0.68;98.02
67192;HTU21D;54120;53.504;49.426;2023-11-21T06:28:40;0.63;98.13
67192;HTU21D;54120;53.504;49.426;2023-11-21T06:31:07;0.58;98.29
67192;HTU21D;54120;53.504;49.426;2023-11-21T06:33:33;0.51;98.64
67192;HTU21D;54120;53.504;49.426;2023-11-21T06:35:59;0.49;98.80
67192;HTU21D;54120;53.504;49.426;2023-11-21T06:38:25;0.55;98.94
67192;HTU21D;54120;53.504;49.426;2023-11-21T06:40:58;0.61;98.73
67192;HTU21D;54120;53.504;49.426;2023-11-21T06:43:28;0.66;98.64
67192;HTU21D;54120;53.504;49.426;2023-11-21T06:45:54;0.72;98.46
67192;HTU21D;54120;53.504;49.426;2023-11-21T06:48:20;0.74;98.06
67192;HTU21D;54120;53.504;49.426;2023-11-21T06:50:46;0.71;98.10
67192;HTU21D;54120;53.504;49.426;2023-11-21T06:53:12;0.78;98.15
67192;HTU21D;54120;53.504;49.426;2023-11-21T06:55:39;0.73;97.74
67192;HTU21D;54120;53.504;49.426;2023-11-21T06:58:05;0.66;98.29
67192;HTU21D;54120;53.504;49.426;2023-11-21T07:00:31;0.62;98.70
67192;HTU21D;54120;53.504;49.426;2023-11-21T07:02:57;0.60;98.77
67192;HTU21D;54120;53.504;49.426;2023-11-21T07:05:23;0.67;98.96
67192;HTU21D;54120;53.504;49.426;2023-11-21T07:07:50;0.65;98.15
67192;HTU21D;54120;53.504;49.426;2023-11-21T07:10:16;0.71;98.91
67192;HTU21D;54120;53.504;49.426;2023-11-21T07:12:42;0.92;98.46
67192;HTU21D;54120;53.504;49.426;2023-11-21T07:15:09;1.10;97.58
67192;HTU21D;54120;53.504;49.426;2023-11-21T07:17:35;1.13;97.02
67192;HTU21D;54120;53.504;49.426;2023-11-21T07:20:02;1.06;96.20
67192;HTU21D;54120;53.504;49.426;2023-11-21T07:22:28;0.96;97.03
67192;HTU21D;54120;53.504;49.426;2023-11-21T07:24:55;0.90;97.03
67192;HTU21D;54120;53.504;49.426;2023-11-21T07:27:24;1.06;97.59
67192;HTU21D;54120;53.504;49.426;2023-11-21T07:29:50;1.08;97.16
67192;HTU21D;54120;53.504;49.426;2023-11-21T07:32:19;1.14;96.71
67192;HTU21D;54120;53.504;49.426;2023-11-21T07:34:45;1.22;96.87
67192;HTU21D;54120;53.504;49.426;2023-11-21T07:37:11;1.26;95.89
67192;HTU21D;54120;53.504;49.426;2023-11-21T07:39:37;1.13;96.07
67192;HTU21D;54120;53.504;49.426;2023-11-21T07:42:07;1.24;96.29
67192;HTU21D;54120;53.504;49.426;2023-11-21T07:44:33;1.17;96.06
67192;HTU21D;54120;53.504;49.426;2023-11-21T07:46:59;1.28;96.09
67192;HTU21D;54120;53.504;49.426;2023-11-21T07:49:26;1.33;95.22
67192;HTU21D;54120;53.504;49.426;2023-11-21T07:51:52;1.40;93.78
67192;HTU21D;54120;53.504;49.426;2023-11-21T07:54:18;1.10;95.04
67192;HTU21D;54120;53.504;49.426;2023-11-21T07:56:45;0.95;96.33
67192;HTU21D;54120;53.504;49.426;2023-11-21T07:59:12;1.05;96.90
67192;HTU21D;54120;53.504;49.426;2023-11-21T08:01:38;1.16;96.36
67192;HTU21D;54120;53.504;49.426;2023-11-21T08:04:06;1.20;96.04
67192;HTU21D;54120;53.504;49.426;2023-11-21T08:06:32;1.26;95.52
67192;HTU21D;54120;53.504;49.426;2023-11-21T08:08:58;1.22;95.04
67192;HTU21D;54120;53.504;49.426;2023-11-21T08:11:25;1.07;95.44
67192;HTU21D;54120;53.504;49.426;2023-11-21T08:13:52;1.05;96.17
67192;HTU21D;54120;53.504;49.426;2023-11-21T08:16:19;1.09;96.17
67192;HTU21D;54120;53.504;49.426;2023-11-21T08:18:45;1.09;96.66
67192;HTU21D;54120;53.504;49.426;2023-11-21T08:21:15;1.10;96.65
67192;HTU21D;54120;53.504;49.426;2023-11-21T08:23:41;1.04;96.36
67192;HTU21D;54120;53.504;49.426;2023-11-21T08:26:07;1.03;96.69
67192;HTU21D;54120;53.504;49.426;2023-11-21T08:28:34;1.02;97.17
67192;HTU21D;54120;53.504;49.426;2023-11-21T08:31:01;1.12;97.04
67192;HTU21D;54120;53.504;49.426;2023-11-21T08:33:27;1.17;97.07
67192;HTU21D;54120;53.504;49.426;2023-11-21T08:35:53;1.14;96.29
67192;HTU21D;54120;53.504;49.426;2023-11-21T08:38:19;1.10;96.60
67192;HTU21D;54120;53.504;49.426;2023-11-21T08:40:45;1.03;96.77
67192;HTU21D;54120;53.504;49.426;2023-11-21T08:43:11;1.03;96.74
67192;HTU21D;54120;53.504;49.426;2023-11-21T08:45:38;1.17;96.68
67192;HTU21D;54120;53.504;49.426;2023-11-21T08:48:04;1.25;96.17
67192;HTU21D;54120;53.504;49.426;2023-11-21T08:50:31;1.42;96.15
67192;HTU21D;54120;53.504;49.426;2023-11-21T08:52:57;1.41;95.34
67192;HTU21D;54120;53.504;49.426;2023-11-21T08:55:23;1.42;94.98
67192;HTU21D;54120;53.504;49.426;2023-11-21T08:57:49;1.48;94.20
67192;HTU21D;54120;53.504;49.426;2023-11-21T09:00:16;1.32;94.78
67192;HTU21D;54120;53.504;49.426;2023-11-21T09:02:43;1.23;95.05
67192;HTU21D;54120;53.504;49.426;2023-11-21T09:05:10;1.28;95.65
67192;HTU21D;54120;53.504;49.426;2023-11-21T09:07:38;1.37;95.80
67192;HTU21D;54120;53.504;49.426;2023-11-21T09:10:05;1.43;95.16
67192;HTU21D;54120;53.504;49.426;2023-11-21T09:12:34;1.39;95.19
67192;HTU21D;54120;53.504;49.426;2023-11-21T09:15:07;1.31;95.26
67192;HTU21D;54120;53.504;49.426;2023-11-21T09:17:35;1.21;94.85
67192;HTU21D;54120;53.504;49.426;2023-11-21T09:20:02;1.13;95.50
67192;HTU21D;54120;53.504;49.426;2023-11-21T09:22:31;1.14;95.55
67192;HTU21D;54120;53.504;49.426;2023-11-21T09:24:58;1.10;95.62
67192;HTU21D;54120;53.504;49.426;2023-11-21T09:27:24;1.20;95.97
67192;HTU21D;54120;53.504;49.426;2023-11-21T09:29:51;1.22;95.60
67192;HTU21D;54120;53.504;49.426;2023-11-21T09:32:19;1.32;95.39
67192;HTU21D;54120;53.504;49.426;2023-11-21T09:34:48;1.36;95.14
67192;HTU21D;54120;53.504;49.426;2023-11-21T09:37:14;1.33;95.04
67192;HTU21D;54120;53.504;49.426;2023-11-21T09:39:41;1.36;95.01
67192;HTU21D;54120;53.504;49.426;2023-11-21T09:42:11;1.46;94.80
67192;HTU21D;54120;53.504;49.426;2023-11-21T09:47:27;1.42;94.33
67192;HTU21D;54120;53.504;49.426;2023-11-21T09:49:54;1.48;94.38
67192;HTU21D;54120;53.504;49.426;2023-11-21T09:52:25;1.53;93.85
67192;HTU21D;54120;53.504;49.426;2023-11-21T09:54:52;1.43;93.95
67192;HTU21D;54120;53.504;49.426;2023-11-21T09:57:25;1.41;94.26
67192;HTU21D;54120;53.504;49.426;2023-11-21T09:59:52;1.39;94.20
67192;HTU21D;54120;53.504;49.426;2023-11-21T10:02:25;1.28;94.62
67192;HTU21D;54120;53.504;49.426;2023-11-21T10:04:52;1.27;94.83
67192;HTU21D;54120;53.504;49.426;2023-11-21T10:07:20;1.24;94.99
67192;HTU21D;54120;53.504;49.426;2023-11-21T10:09:47;1.18;95.39
67192;HTU21D;54120;53.504;49.426;2023-11-21T10:12:17;1.16;95.69
67192;HTU21D;54120;53.504;49.426;2023-11-21T10:14:46;1.18;95.76
67192;HTU21D;54120;53.504;49.426;2023-11-21T10:17:15;1.19;95.71
67192;HTU21D;54120;53.504;49.426;2023-11-21T10:19:46;1.14;95.79
67192;HTU21D;54120;53.504;49.426;2023-11-21T10:22:15;1.16;96.19
67192;HTU21D;54120;53.504;49.426;2023-11-21T10:24:41;1.23;95.93
67192;HTU21D;54120;53.504;49.426;2023-11-21T10:27:09;1.19;96.02
67192;HTU21D;54120;53.504;49.426;2023-11-21T10:29:36;1.17;96.36
67192;HTU21D;54120;53.504;49.426;2023-11-21T10:32:03;1.20;96.65
67192;HTU21D;54120;53.504;49.426;2023-11-21T10:34:29;1.22;96.78
67192;HTU21D;54120;53.504;49.426;2023-11-21T10:36:55;1.26;96.77
67192;HTU21D;54120;53.504;49.426;2023-11-21T10:39:24;1.24;96.69
67192;HTU21D;54120;53.504;49.426;2023-11-21T10:41:56;1.19;96.91
67192;HTU21D;54120;53.504;49.426;2023-11-21T10:44:22;1.07;97.26
67192;HTU21D;54120;53.504;49.426;2023-11-21T10:46:54;1.03;97.52
67192;HTU21D;54120;53.504;49.426;2023-11-21T10:49:26;1.02;97.90
67192;HTU21D;54120;53.504;49.426;2023-11-21T10:51:54;1.09;98.07
67192;HTU21D;54120;53.504;49.426;2023-11-21T10:54:21;1.09;97.69
67192;HTU21D;54120;53.504;49.426;2023-11-21T10:56:50;1.07;97.74
67192;HTU21D;54120;53.504;49.426;2023-11-21T10:59:19;1.11;97.53
67192;HTU21D;54120;53.504;49.426;2023-11-21T11:01:47;1.08;97.41
67192;HTU21D;54120;53.504;49.426;2023-11-21T11:04:18;0.98;97.36
67192;HTU21D;54120;53.504;49.426;2023-11-21T11:06:49;0.96;97.71
67192;HTU21D;54120;53.504;49.426;2023-11-21T11:09:17;0.87;97.73
67192;HTU21D;54120;53.504;49.426;2023-11-21T11:11:43;0.84;98.04
67192;HTU21D;54120;53.504;49.426;2023-11-21T11:14:11;0.83;98.19
67192;HTU21D;54120;53.504;49.426;2023-11-21T11:16:41;0.83;98.42
67192;HTU21D;54120;53.504;49.426;2023-11-21T11:19:09;0.83;98.52
67192;HTU21D;54120;53.504;49.426;2023-11-21T11:24:28;0.87;98.79
67192;HTU21D;54120;53.504;49.426;2023-11-21T11:30:07;0.90;99.04
67192;HTU21D;54120;53.504;49.426;2023-11-21T11:32:58;0.91;99.13
67192;HTU21D;54120;53.504;49.426;2023-11-21T11:35:38;0.91;99.32
67192;HTU21D;54120;53.504;49.426;2023-11-21T11:38:08;0.91;99.32
67192;HTU21D;54120;53.504;49.426;2023-11-21T11:40:41;0.88;99.49
67192;HTU21D;54120;53.504;49.426;2023-11-21T11:43:10;0.90;99.64
67192;HTU21D;54120;53.504;49.426;2023-11-21T11:45:38;0.89;99.66
67192;HTU21D;54120;53.504;49.426;2023-11-21T11:48:07;0.87;99.80
67192;HTU21D;54120;53.504;49.426;2023-11-21T11:50:34;0.83;99.85
67192;HTU21D;54120;53.504;49.426;2023-11-21T11:53:13;0.86;100.12
67192;HTU21D;54120;53.504;49.426;2023-11-21T11:55:40;0.84;100.08
67192;HTU21D;54120;53.504;49.426;2023-11-21T11:58:07;0.84;100.38
67192;HTU21D;54120;53.504;49.426;2023-11-21T12:00:35;0.84;100.54
67192;HTU21D;54120;53.504;49.426;2023-11-21T12:03:07;0.84;100.82
67192;HTU21D;54120;53.504;49.426;2023-11-21T12:05:36;0.88;100.93
67192;HTU21D;54120;53.504;49.426;2023-11-21T12:08:06;0.77;100.86
67192;HTU21D;54120;53.504;49.426;2023-11-21T12:10:35;0.71;101.31
67192;HTU21D;54120;53.504;49.426;2023-11-21T12:13:05;0.72;101.66
67192;HTU21D;54120;53.504;49.426;2023-11-21T12:15:36;0.68;101.89
67192;HTU21D;54120;53.504;49.426;2023-11-21T12:18:03;0.68;102.09
67192;HTU21D;54120;53.504;49.426;2023-11-21T12:20:30;0.65;102.31
67192;HTU21D;54120;53.504;49.426;2023-11-21T12:23:00;0.62;102.48
67192;HTU21D;54120;53.504;49.426;2023-11-21T12:25:28;0.61;102.68
67192;HTU21D;54120;53.504;49.426;2023-11-21T12:27:56;0.61;102.83
67192;HTU21D;54120;53.504;49.426;2023-11-21T12:30:24;0.59;102.97
67192;HTU21D;54120;53.504;49.426;2023-11-21T12:32:55;0.59;103.15
67192;HTU21D;54120;53.504;49.426;2023-11-21T12:35:24;0.60;103.31
67192;HTU21D;54120;53.504;49.426;2023-11-21T12:37:51;0.59;103.28
67192;HTU21D;54120;53.504;49.426;2023-11-21T12:40:18;0.54;103.46
67192;HTU21D;54120;53.504;49.426;2023-11-21T12:42:46;0.51;103.74
67192;HTU21D;54120;53.504;49.426;2023-11-21T12:45:23;0.50;103.92
67192;HTU21D;54120;53.504;49.426;2023-11-21T12:50:23;0.43;104.32
67192;HTU21D;54120;53.504;49.426;2023-11-21T12:52:52;0.42;104.50
67192;HTU21D;54120;53.504;49.426;2023-11-21T12:55:21;0.39;104.63
67192;HTU21D;54120;53.504;49.426;2023-11-21T12:57:52;0.35;104.79
67192;HTU21D;54120;53.504;49.426;2023-11-21T13:01:06;0.31;104.94
67192;HTU21D;54120;53.504;49.426;2023-11-21T13:03:10;0.31;105.18
67192;HTU21D;54120;53.504;49.426;2023-11-21T13:05:39;0.30;105.31
67192;HTU21D;54120;53.504;49.426;2023-11-21T13:08:07;0.28;105.47
67192;HTU21D;54120;53.504;49.426;2023-11-21T13:10:35;0.31;105.58
67192;HTU21D;54120;53.504;49.426;2023-11-21T13:13:04;0.30;105.68
67192;HTU21D;54120;53.504;49.426;2023-11-21T13:15:40;0.32;105.82
67192;HTU21D;54120;53.504;49.426;2023-11-21T13:18:09;0.34;105.89
67192;HTU21D;54120;53.504;49.426;2023-11-21T13:20:37;0.34;105.95
67192;HTU21D;54120;53.504;49.426;2023-11-21T13:23:08;0.29;106.00
67192;HTU21D;54120;53.504;49.426;2023-11-21T13:25:34;0.28;106.05
67192;HTU21D;54120;53.504;49.426;2023-11-21T13:28:00;0.24;106.11
67192;HTU21D;54120;53.504;49.426;2023-11-21T13:30:28;0.23;106.25
67192;HTU21D;54120;53.504;49.426;2023-11-21T13:33:02;0.23;106.34
67192;HTU21D;54120;53.504;49.426;2023-11-21T13:35:38;0.21;106.39
67192;HTU21D;54120;53.504;49.426;2023-11-21T13:38:13;0.22;106.45
67192;HTU21D;54120;53.504;49.426;2023-11-21T13:40:41;0.21;106.47
67192;HTU21D;54120;53.504;49.426;2023-11-21T13:43:13;0.18;106.50
67192;HTU21D;54120;53.504;49.426;2023-11-21T13:45:40;0.18;106.52
67192;HTU21D;54120;53.504;49.426;2023-11-21T13:48:07;0.19;106.55
67192;HTU21D;54120;53.504;49.426;2023-11-21T13:50:37;0.19;106.54
67192;HTU21D;54120;53.504;49.426;2023-11-21T13:53:05;0.21;106.54
67192;HTU21D;54120;53.504;49.426;2023-11-21T13:55:44;0.21;106.49
67192;HTU21D;54120;53.504;49.426;2023-11-21T13:58:15;0.20;106.41
67192;HTU21D;54120;53.504;49.426;2023-11-21T14:00:45;0.18;106.37
67192;HTU21D;54120;53.504;49.426;2023-11-21T14:03:13;0.18;106.33
67192;HTU21D;54120;53.504;49.426;2023-11-21T14:05:45;0.19;106.28
67192;HTU21D;54120;53.504;49.426;2023-11-21T14:08:13;0.17;106.24
67192;HTU21D;54120;53.504;49.426;2023-11-21T14:10:42;0.17;106.20
67192;HTU21D;54120;53.504;49.426;2023-11-21T14:13:09;0.17;106.20
67192;HTU21D;54120;53.504;49.426;2023-11-21T14:15:39;0.20;106.17
67192;HTU21D;54120;53.504;49.426;2023-11-21T14:18:09;0.18;106.13
67192;HTU21D;54120;53.504;49.426;2023-11-21T14:20:40;0.15;106.03
67192;HTU21D;54120;53.504;49.426;2023-11-21T14:23:07;0.14;106.00
67192;HTU21D;54120;53.504;49.426;2023-11-21T14:25:34;0.17;106.01
67192;HTU21D;54120;53.504;49.426;2023-11-21T14:28:03;0.23;106.01
67192;HTU21D;54120;53.504;49.426;2023-11-21T14:30:30;0.27;105.91
67192;HTU21D;54120;53.504;49.426;2023-11-21T14:33:01;0.21;105.71
67192;HTU21D;54120;53.504;49.426;2023-11-21T14:35:27;0.16;105.53
67192;HTU21D;54120;53.504;49.426;2023-11-21T14:37:56;0.17;105.47
67192;HTU21D;54120;53.504;49.426;2023-11-21T14:40:27;0.17;105.33
67192;HTU21D;54120;53.504;49.426;2023-11-21T14:43:07;0.16;105.21
67192;HTU21D;54120;53.504;49.426;2023-11-21T14:45:34;0.15;105.16
67192;HTU21D;54120;53.504;49.426;2023-11-21T14:48:00;0.15;105.09
67192;HTU21D;54120;53.504;49.426;2023-11-21T14:50:47;0.15;105.10
67192;HTU21D;54120;53.504;49.426;2023-11-21T14:53:29;0.16;105.04
67192;HTU21D;54120;53.504;49.426;2023-11-21T14:56:14;0.16;105.09
67192;HTU21D;54120;53.504;49.426;2023-11-21T14:58:49;0.17;105.02
67192;HTU21D;54120;53.504;49.426;2023-11-21T15:01:15;0.14;104.91
67192;HTU21D;54120;53.504;49.426;2023-11-21T15:03:52;0.16;104.94
67192;HTU21D;54120;53.504;49.426;2023-11-21T15:06:21;0.14;104.87
67192;HTU21D;54120;53.504;49.426;2023-11-21T15:08:57;0.16;104.89
67192;HTU21D;54120;53.504;49.426;2023-11-21T15:11:33;0.15;104.88
67192;HTU21D;54120;53.504;49.426;2023-11-21T15:13:59;0.17;104.90
67192;HTU21D;54120;53.504;49.426;2023-11-21T15:16:26;0.18;104.84
67192;HTU21D;54120;53.504;49.426;2023-11-21T15:18:52;0.18;104.79
67192;HTU21D;54120;53.504;49.426;2023-11-21T15:21:22;0.18;104.74
67192;HTU21D;54120;53.504;49.426;2023-11-21T15:23:50;0.16;104.73